Flight Track Log - Related Links

Times and Time Zones

All times are in EST time to prevent confusion due to time zone crossing. See the FIN666 flight status page for this flight to view local times or setup timezone preferences in your user account.

Time Position Orientation Groundspeed Altitude Reporting Facility
EST Latitude Longitude Course Direction KTS MPH feet Rate Location/Type
Mon 07:40:00 AM 55.9207 13.2838 49° Northeast  Level Estimated
Mon 07:41:00 AM 55.9958 13.4423 50° Northeast  Level Estimated
Mon 07:42:00 AM 56.0708 13.6014 50° Northeast  Level Estimated
Mon 07:43:00 AM 56.1456 13.7611 50° Northeast  Level Estimated
Mon 07:44:00 AM 56.2202 13.9214 50° Northeast  Level Estimated
Mon 07:45:00 AM 56.2945 14.0824 50° Northeast  Level Estimated
Mon 07:46:00 AM 56.3687 14.2440 50° Northeast  Level Estimated
Mon 07:47:00 AM 56.4426 14.4062 50° Northeast  Level Estimated
Mon 07:48:00 AM 56.5233 14.5846 51° Northeast  Level Estimated
Mon 07:49:00 AM 56.6038 14.7637 51° Northeast  Level Estimated
Mon 07:50:00 AM 56.6841 14.9437 51° Northeast  Level Estimated
Mon 07:51:00 AM 56.7640 15.1243 51° Northeast  Level Estimated
Mon 07:52:00 AM 56.8437 15.3058 51° Northeast  Level Estimated
Mon 07:53:00 AM 56.9231 15.4880 51° Northeast  Level Estimated
Mon 07:54:00 AM 57.0023 15.6710 51° Northeast  Level Estimated
Mon 07:55:00 AM 57.0812 15.8548 52° Northeast  Level Estimated
Mon 07:56:00 AM 57.1598 16.0394 52° Northeast  Level Estimated
Mon 07:57:00 AM 57.2382 16.2247 52° Northeast  Level Estimated
Mon 07:58:00 AM 57.3163 16.4109 52° Northeast  Level Estimated
Mon 07:59:00 AM 57.3941 16.5978 52° Northeast  Level Estimated
Mon 08:00:00 AM 57.4716 16.7855 52° Northeast  Level Estimated
Mon 08:01:00 AM 57.5489 16.9740 53° Northeast  Level Estimated
Mon 08:02:00 AM 57.6258 17.1634 53° Northeast  Level Estimated
Mon 08:03:00 AM 57.7025 17.3535 53° Northeast  Level Estimated
Mon 08:04:00 AM 57.7789 17.5444 53° Northeast  Level Estimated
Mon 08:05:00 AM 57.8550 17.7362 53° Northeast  Level Estimated
Mon 08:06:00 AM 57.9309 17.9287 53° Northeast  Level Estimated
Mon 08:07:00 AM 58.0064 18.1221 54° Northeast  Level Estimated
Mon 08:08:00 AM 58.0816 18.3162 54° Northeast  Level Estimated
Mon 08:09:00 AM 58.1566 18.5112 54° Northeast  Level Estimated
Mon 08:10:00 AM 58.2312 18.7071 54° Northeast  Level Estimated
Mon 08:11:00 AM 58.3055 18.9037 54° Northeast  Level Estimated
Mon 08:12:00 AM 58.3796 19.1012 54° Northeast  Level Estimated
Mon 08:13:00 AM 58.4533 19.2995 55° Northeast  Level Estimated
Mon 08:14:00 AM 58.5267 19.4986 55° Northeast  Level Estimated
Mon 08:15:00 AM 58.5998 19.6986 55° Northeast  Level Estimated
Mon 08:16:00 AM 58.6726 19.8994 55° Northeast  Level Estimated
Mon 08:17:00 AM 58.7451 20.1010 55° Northeast  Level Estimated
Mon 08:18:00 AM 58.8173 20.3035 55° Northeast  Level Estimated
Mon 08:19:00 AM 58.8891 20.5068 56° Northeast  Level Estimated
Mon 08:20:00 AM 58.9607 20.7110 56° Northeast  Level Estimated
Mon 08:21:00 AM 59.0297 20.9097 56° Northeast  Level Estimated
Mon 08:22:00 AM 59.0984 21.1091 56° Northeast  Level Estimated
Mon 08:23:00 AM 59.1668 21.3094 56° Northeast  Level Estimated
Mon 08:24:00 AM 59.2349 21.5105 56° Northeast  Level Estimated
Mon 08:25:00 AM 59.3027 21.7124 57° Northeast  Level Estimated
Mon 08:26:00 AM 59.3702 21.9151 57° Northeast  Level Estimated
Mon 08:27:00 AM 59.4373 22.1186 57° Northeast  Level Estimated
Mon 08:28:00 AM 59.5042 22.3229 57° Northeast  Level Estimated
Mon 08:29:00 AM 59.5707 22.5280 57° Northeast  Level Estimated
Mon 08:30:00 AM 59.6369 22.7340 57° Northeast  Level Estimated
Mon 08:31:00 AM 59.7028 22.9407 58° Northeast  Level Estimated
Mon 08:32:00 AM 59.7683 23.1483 58° Northeast  Level Estimated
Mon 08:33:00 AM 59.8335 23.3566 58° Northeast  Level Estimated
Mon 08:34:00 AM 59.8984 23.5658 58° Northeast  Level Estimated
Mon 08:35:00 AM 59.9630 23.7758 58° Northeast  Level Estimated
Mon 08:36:00 AM 60.0272 23.9866 59° Northeast  Level Estimated
Mon 08:37:00 AM 60.0911 24.1983 59° Northeast  Level Estimated
Mon 08:38:00 AM 60.1547 24.4107 59° Northeast  Level Estimated
Mon 08:39:00 AM 60.2179 24.6240 59° Northeast  Level Estimated
Mon 08:40:00 AM 60.2807 24.8381 59° Northeast  Level Estimated
Mon 08:41:00 AM 60.3172 24.9633 59° Northeast  Level Estimated
Mon 08:42:00 AM 60.3172 24.9633 37° Northeast  Level Estimated
Mon 08:43:00 AM 60.3172 24.9633 37° Northeast  Level Estimated
Mon 08:44:00 AM 60.3172 24.9633 37° Northeast  Level Estimated
Mon 08:45:00 AM 60.3172 24.9633 37° Northeast  Level Estimated
Mon 08:46:00 AM 60.3172 24.9633 37° Northeast  Level Estimated
Mon 08:47:00 AM 60.3172 24.9633 37° Northeast  Level Estimated
Mon 08:48:00 AM 60.3172 24.9633 37° Northeast  Level Estimated
Mon 08:49:00 AM 60.3172 24.9633 37° Northeast  Level Estimated
Mon 08:50:00 AM 60.3172 24.9633 37° Northeast  Level Estimated
Mon 08:51:00 AM 60.3172 24.9633 37° Northeast  Level Estimated
Mon 08:52:00 AM 60.3172 24.9633 37° Northeast  Level Estimated
Mon 08:53:00 AM 60.3172 24.9633 37° Northeast  Level Estimated
Mon 08:54:00 AM 60.3172 24.9633 37° Northeast  Level Estimated
Mon 08:55:00 AM 60.3172 24.9633 37° Northeast  Level Estimated
Mon 08:56:00 AM 60.3172 24.9633 37° Northeast  Level Estimated
Mon 08:57:00 AM 60.3172 24.9633 37° Northeast  Level Estimated
Mon 08:58:00 AM 60.3172 24.9633 37° Northeast  Level Estimated
Mon 08:59:00 AM 60.3172 24.9633 37° Northeast  Level Estimated
Mon 09:00:00 AM 60.3172 24.9633 37° Northeast  Level Estimated
Mon 09:01:00 AM 60.3172 24.9633 37° Northeast  Level Estimated
Mon 09:02:00 AM 60.3172 24.9633 37° Northeast  Level Estimated
Mon 09:03:00 AM 60.3172 24.9633 37° Northeast  Level Estimated
Mon 09:04:00 AM 60.3172 24.9633 37° Northeast  Level Estimated
Mon 09:05:00 AM 60.3172 24.9633 37° Northeast  Level Estimated
Mon 09:06:00 AM 60.3172 24.9633 37° Northeast  Level Estimated
Mon 09:07:00 AM 60.3172 24.9633 37° Northeast  Level Estimated

Login

Don't have an account? Register now (free) for customized features, flight alerts, and more!